Карточка аэропорта UMKK

Внимание!
Информация на этой странице в стадии наполнения.
Если вы не увидели какой-то информации, или заметили неточность - пожалуйста сообщите нам!
Спасибо!
Команда RU-STAFF
Название аэропортаХраброво
Название аэропорта (англ.)Khrabrovo
Превышение43 ft. (13.1 m.)
Координаты54°53.4', 20°35.55'
Высота перехода4000ft
Эшелон переходаFL50 (QNH>=1013hPa); FL60 (QNH<1013hPa); FL50 (QNH<977hPa);
Коды ответчика6620-6637
Зона ОрВДКалининград РПИ (UMKK)
Данные METARUMKK 271100Z 03003MPS 2700 -RA BR BKN001 OVC016 06/06 Q1014 R24/290095 NOSIG RMK QBB050 OBST OBSC QFE760/1013
Проноз погоды (TAF)UMKK 270756Z 2709/2809 02003G08MPS 1200 RADZ BR OVC003 TEMPO 2709/2715 0300 -SHRA FG BKN001 BKN012CB BECMG 2715/2717 0300 FG OVC001 TEMPO 2717/2809 0800 -DZ PRFG OVC002 BECMG 2717/2719 VRB01MPS
NOTAMshow/hide NOTAM
AWOS   TABLE

Информация о ВПП

ВПП Длина ВПП (м.) Покрытие Курс ВПП Частота ILS
243350Асфальтобетон240109.5
063350Асфальтобетон60110.3

Диспетчерские позиции

Позывной Наименование органа УВД Частота
UMKK_APPКалининград-Подход126.0
UMKK_TWRКалининград-Вышка127.2



Спутниковое изображение